sensor_id;sensor_type;location;lat;lon;timestamp;pressure;altitude;pressure_sealevel;temperature;humidity
50859;BME280;36826;47.514;19.056;2023-02-15T00:01:19;101800.47;;;11.85;47.19
50859;BME280;36826;47.514;19.056;2023-02-15T00:03:47;101808.22;;;11.22;49.21
50859;BME280;36826;47.514;19.056;2023-02-15T00:06:12;101808.91;;;11.11;49.42
50859;BME280;36826;47.514;19.056;2023-02-15T00:08:38;101801.28;;;11.32;48.84
50859;BME280;36826;47.514;19.056;2023-02-15T00:11:11;101800.28;;;11.48;47.78
50859;BME280;36826;47.514;19.056;2023-02-15T00:13:37;101797.19;;;10.99;48.73
50859;BME280;36826;47.514;19.056;2023-02-15T00:16:05;101799.22;;;10.96;48.99
50859;BME280;36826;47.514;19.056;2023-02-15T00:18:30;101812.28;;;10.13;50.80
50859;BME280;36826;47.514;19.056;2023-02-15T00:20:56;101811.19;;;10.76;49.37
50859;BME280;36826;47.514;19.056;2023-02-15T00:23:22;101813.78;;;10.48;49.53
50859;BME280;36826;47.514;19.056;2023-02-15T00:25:47;101812.16;;;10.74;50.01
50859;BME280;36826;47.514;19.056;2023-02-15T00:28:12;101811.31;;;10.00;51.01
50859;BME280;36826;47.514;19.056;2023-02-15T00:30:38;101802.00;;;10.65;49.62
50859;BME280;36826;47.514;19.056;2023-02-15T00:33:03;101809.72;;;11.41;48.08
50859;BME280;36826;47.514;19.056;2023-02-15T00:35:28;101799.66;;;11.57;47.84
50859;BME280;36826;47.514;19.056;2023-02-15T00:37:54;101806.69;;;11.73;47.30
50859;BME280;36826;47.514;19.056;2023-02-15T00:40:19;101807.47;;;11.20;48.23
50859;BME280;36826;47.514;19.056;2023-02-15T00:42:45;101804.09;;;11.31;48.15
50859;BME280;36826;47.514;19.056;2023-02-15T00:45:10;101807.19;;;11.65;47.68
50859;BME280;36826;47.514;19.056;2023-02-15T00:47:35;101800.78;;;11.68;47.25
50859;BME280;36826;47.514;19.056;2023-02-15T00:50:01;101794.59;;;11.80;47.45
50859;BME280;36826;47.514;19.056;2023-02-15T00:52:28;101794.28;;;11.57;47.72
50859;BME280;36826;47.514;19.056;2023-02-15T00:54:53;101793.69;;;11.66;47.31
50859;BME280;36826;47.514;19.056;2023-02-15T00:57:18;101791.97;;;11.65;47.23
50859;BME280;36826;47.514;19.056;2023-02-15T00:59:44;101798.19;;;11.66;48.15
50859;BME280;36826;47.514;19.056;2023-02-15T01:02:09;101790.94;;;11.81;46.82
50859;BME280;36826;47.514;19.056;2023-02-15T01:04:34;101796.78;;;12.01;47.14
50859;BME280;36826;47.514;19.056;2023-02-15T01:06:59;101805.16;;;12.09;46.69
50859;BME280;36826;47.514;19.056;2023-02-15T01:09:26;101804.31;;;12.08;46.87
50859;BME280;36826;47.514;19.056;2023-02-15T01:11:52;101797.13;;;12.22;46.49
50859;BME280;36826;47.514;19.056;2023-02-15T01:14:17;101794.97;;;12.14;46.69
50859;BME280;36826;47.514;19.056;2023-02-15T01:16:43;101795.50;;;12.32;46.15
50859;BME280;36826;47.514;19.056;2023-02-15T01:19:08;101792.50;;;12.24;46.36
50859;BME280;36826;47.514;19.056;2023-02-15T01:21:33;101792.94;;;12.05;46.40
50859;BME280;36826;47.514;19.056;2023-02-15T01:23:59;101797.88;;;11.98;46.79
50859;BME280;36826;47.514;19.056;2023-02-15T01:26:24;101790.06;;;11.68;46.73
50859;BME280;36826;47.514;19.056;2023-02-15T01:28:50;101798.91;;;11.00;48.30
50859;BME280;36826;47.514;19.056;2023-02-15T01:31:16;101788.88;;;10.89;49.19
50859;BME280;36826;47.514;19.056;2023-02-15T01:33:42;101788.59;;;10.80;49.16
50859;BME280;36826;47.514;19.056;2023-02-15T01:36:07;101786.91;;;11.33;48.43
50859;BME280;36826;47.514;19.056;2023-02-15T01:38:33;101783.97;;;11.51;47.49
50859;BME280;36826;47.514;19.056;2023-02-15T01:40:59;101781.00;;;11.69;47.13
50859;BME280;36826;47.514;19.056;2023-02-15T01:43:44;101775.56;;;11.83;46.66
50859;BME280;36826;47.514;19.056;2023-02-15T01:46:10;101777.38;;;11.29;47.64
50859;BME280;36826;47.514;19.056;2023-02-15T01:48:36;101781.31;;;12.04;46.92
50859;BME280;36826;47.514;19.056;2023-02-15T01:51:04;101772.47;;;11.89;46.94
50859;BME280;36826;47.514;19.056;2023-02-15T01:53:31;101768.38;;;11.96;45.95
50859;BME280;36826;47.514;19.056;2023-02-15T01:55:59;101767.75;;;10.70;48.84
50859;BME280;36826;47.514;19.056;2023-02-15T01:58:26;101773.09;;;10.70;48.92
50859;BME280;36826;47.514;19.056;2023-02-15T02:00:52;101769.34;;;11.29;47.62
50859;BME280;36826;47.514;19.056;2023-02-15T02:03:20;101777.25;;;11.31;47.79
50859;BME280;36826;47.514;19.056;2023-02-15T02:05:50;101774.09;;;11.51;46.64
50859;BME280;36826;47.514;19.056;2023-02-15T02:08:15;101774.53;;;11.58;46.81
50859;BME280;36826;47.514;19.056;2023-02-15T02:10:41;101768.88;;;11.63;46.96
50859;BME280;36826;47.514;19.056;2023-02-15T02:13:06;101765.53;;;11.59;46.86
50859;BME280;36826;47.514;19.056;2023-02-15T02:16:16;101763.50;;;11.63;46.64
50859;BME280;36826;47.514;19.056;2023-02-15T02:18:28;101767.69;;;11.54;47.05
50859;BME280;36826;47.514;19.056;2023-02-15T02:29:01;101768.03;;;11.75;45.87
50859;BME280;36826;47.514;19.056;2023-02-15T02:31:39;101766.34;;;11.34;47.24
50859;BME280;36826;47.514;19.056;2023-02-15T02:44:43;101764.69;;;11.31;46.56
50859;BME280;36826;47.514;19.056;2023-02-15T02:47:12;101776.03;;;10.95;48.06
50859;BME280;36826;47.514;19.056;2023-02-15T02:49:39;101774.97;;;10.97;48.18
50859;BME280;36826;47.514;19.056;2023-02-15T02:54:49;101783.53;;;11.17;47.13
50859;BME280;36826;47.514;19.056;2023-02-15T02:57:14;101788.53;;;11.09;47.31
50859;BME280;36826;47.514;19.056;2023-02-15T02:59:41;101781.75;;;11.30;47.35
50859;BME280;36826;47.514;19.056;2023-02-15T03:02:17;101773.88;;;11.42;47.24
50859;BME280;36826;47.514;19.056;2023-02-15T03:04:46;101778.09;;;11.31;47.38
50859;BME280;36826;47.514;19.056;2023-02-15T03:07:18;101784.09;;;11.22;47.36
50859;BME280;36826;47.514;19.056;2023-02-15T03:09:47;101778.53;;;11.25;46.88
50859;BME280;36826;47.514;19.056;2023-02-15T03:12:16;101776.38;;;10.76;48.25
50859;BME280;36826;47.514;19.056;2023-02-15T03:14:43;101781.75;;;11.03;47.72
50859;BME280;36826;47.514;19.056;2023-02-15T03:17:10;101778.03;;;11.33;47.17
50859;BME280;36826;47.514;19.056;2023-02-15T03:19:36;101784.09;;;11.22;47.82
50859;BME280;36826;47.514;19.056;2023-02-15T03:22:04;101783.44;;;11.18;47.48
50859;BME280;36826;47.514;19.056;2023-02-15T03:24:48;101781.91;;;11.14;47.71
50859;BME280;36826;47.514;19.056;2023-02-15T03:27:19;101779.84;;;11.32;47.68
50859;BME280;36826;47.514;19.056;2023-02-15T03:29:48;101775.88;;;11.38;47.07
50859;BME280;36826;47.514;19.056;2023-02-15T03:32:15;101783.53;;;11.44;46.97
50859;BME280;36826;47.514;19.056;2023-02-15T03:34:42;101789.53;;;10.93;47.70
50859;BME280;36826;47.514;19.056;2023-02-15T03:37:13;101789.06;;;11.28;47.80
50859;BME280;36826;47.514;19.056;2023-02-15T03:39:42;101785.13;;;11.34;47.08
50859;BME280;36826;47.514;19.056;2023-02-15T03:42:30;101791.00;;;11.39;47.01
50859;BME280;36826;47.514;19.056;2023-02-15T03:45:05;101788.84;;;11.31;47.43
50859;BME280;36826;47.514;19.056;2023-02-15T03:47:34;101787.13;;;10.88;47.56
50859;BME280;36826;47.514;19.056;2023-02-15T03:52:26;101783.16;;;11.09;48.46
50859;BME280;36826;47.514;19.056;2023-02-15T03:54:53;101792.34;;;10.48;49.06
50859;BME280;36826;47.514;19.056;2023-02-15T03:57:24;101787.56;;;9.17;52.73
50859;BME280;36826;47.514;19.056;2023-02-15T04:03:20;101786.25;;;9.40;52.54
50859;BME280;36826;47.514;19.056;2023-02-15T04:05:48;101786.81;;;10.51;49.14
50859;BME280;36826;47.514;19.056;2023-02-15T04:08:14;101778.94;;;10.77;49.45
50859;BME280;36826;47.514;19.056;2023-02-15T04:10:39;101787.94;;;11.18;48.00
50859;BME280;36826;47.514;19.056;2023-02-15T04:13:18;101778.06;;;11.18;47.82
50859;BME280;36826;47.514;19.056;2023-02-15T04:15:43;101782.06;;;10.98;48.40
50859;BME280;36826;47.514;19.056;2023-02-15T04:18:27;101785.34;;;11.16;47.84
50859;BME280;36826;47.514;19.056;2023-02-15T04:21:11;101782.97;;;11.39;47.82
50859;BME280;36826;47.514;19.056;2023-02-15T04:23:55;101784.88;;;10.53;50.06
50859;BME280;36826;47.514;19.056;2023-02-15T04:26:39;101781.41;;;9.77;51.67
50859;BME280;36826;47.514;19.056;2023-02-15T04:29:04;101790.03;;;9.52;52.14
50859;BME280;36826;47.514;19.056;2023-02-15T04:31:29;101784.34;;;10.03;51.39
50859;BME280;36826;47.514;19.056;2023-02-15T04:33:55;101785.88;;;9.16;52.66
50859;BME280;36826;47.514;19.056;2023-02-15T04:36:20;101785.25;;;9.11;53.59
50859;BME280;36826;47.514;19.056;2023-02-15T04:38:45;101783.19;;;9.93;52.26
50859;BME280;36826;47.514;19.056;2023-02-15T04:41:11;101781.50;;;10.21;50.55
50859;BME280;36826;47.514;19.056;2023-02-15T04:43:38;101782.66;;;10.31;50.50
50859;BME280;36826;47.514;19.056;2023-02-15T04:46:03;101781.72;;;10.47;49.97
50859;BME280;36826;47.514;19.056;2023-02-15T04:48:28;101781.88;;;10.87;49.81
50859;BME280;36826;47.514;19.056;2023-02-15T04:50:54;101786.13;;;10.62;49.64
50859;BME280;36826;47.514;19.056;2023-02-15T04:53:19;101788.84;;;11.31;49.02
50859;BME280;36826;47.514;19.056;2023-02-15T04:55:44;101786.81;;;11.08;48.13
50859;BME280;36826;47.514;19.056;2023-02-15T04:58:10;101784.00;;;10.82;49.20
50859;BME280;36826;47.514;19.056;2023-02-15T05:00:35;101791.56;;;10.32;49.72
50859;BME280;36826;47.514;19.056;2023-02-15T05:03:00;101779.88;;;10.90;49.72
50859;BME280;36826;47.514;19.056;2023-02-15T05:05:26;101783.75;;;9.83;51.39
50859;BME280;36826;47.514;19.056;2023-02-15T05:07:51;101787.59;;;10.08;51.67
50859;BME280;36826;47.514;19.056;2023-02-15T05:10:16;101792.22;;;9.76;51.69
50859;BME280;36826;47.514;19.056;2023-02-15T05:12:42;101791.59;;;10.01;51.79
50859;BME280;36826;47.514;19.056;2023-02-15T05:15:07;101795.22;;;9.39;52.31
50859;BME280;36826;47.514;19.056;2023-02-15T05:17:32;101791.25;;;9.46;52.10
50859;BME280;36826;47.514;19.056;2023-02-15T05:19:58;101798.66;;;10.33;51.38
50859;BME280;36826;47.514;19.056;2023-02-15T05:22:24;101802.41;;;10.44;50.90
50859;BME280;36826;47.514;19.056;2023-02-15T05:24:50;101799.06;;;9.96;51.84
50859;BME280;36826;47.514;19.056;2023-02-15T05:27:36;101805.88;;;9.71;50.92
50859;BME280;36826;47.514;19.056;2023-02-15T05:30:21;101810.88;;;9.15;52.70
50859;BME280;36826;47.514;19.056;2023-02-15T05:32:46;101812.31;;;8.88;53.18
50859;BME280;36826;47.514;19.056;2023-02-15T05:35:13;101818.84;;;9.93;50.35
50859;BME280;36826;47.514;19.056;2023-02-15T05:37:38;101824.22;;;10.38;49.31
50859;BME280;36826;47.514;19.056;2023-02-15T05:40:04;101824.78;;;10.43;48.85
50859;BME280;36826;47.514;19.056;2023-02-15T05:42:29;101826.47;;;10.30;48.73
50859;BME280;36826;47.514;19.056;2023-02-15T05:44:54;101827.69;;;10.24;48.90
50859;BME280;36826;47.514;19.056;2023-02-15T05:47:20;101827.88;;;10.52;48.55
50859;BME280;36826;47.514;19.056;2023-02-15T05:49:47;101827.66;;;10.55;48.37
50859;BME280;36826;47.514;19.056;2023-02-15T05:52:12;101824.78;;;10.72;48.45
50859;BME280;36826;47.514;19.056;2023-02-15T05:54:40;101826.19;;;9.90;50.44
50859;BME280;36826;47.514;19.056;2023-02-15T05:57:05;101834.16;;;9.29;51.43
50859;BME280;36826;47.514;19.056;2023-02-15T05:59:32;101835.44;;;8.89;52.51
50859;BME280;36826;47.514;19.056;2023-02-15T06:01:59;101831.00;;;9.52;51.29
50859;BME280;36826;47.514;19.056;2023-02-15T06:04:25;101826.69;;;9.66;50.98
50859;BME280;36826;47.514;19.056;2023-02-15T06:06:50;101827.22;;;9.57;50.87
50859;BME280;36826;47.514;19.056;2023-02-15T06:09:15;101831.50;;;10.51;49.03
50859;BME280;36826;47.514;19.056;2023-02-15T06:11:43;101839.28;;;9.94;50.40
50859;BME280;36826;47.514;19.056;2023-02-15T06:14:09;101833.41;;;9.73;50.84
50859;BME280;36826;47.514;19.056;2023-02-15T06:16:34;101835.13;;;11.35;47.88
50859;BME280;36826;47.514;19.056;2023-02-15T06:19:00;101832.88;;;12.74;46.25
50859;BME280;36826;47.514;19.056;2023-02-15T06:21:26;101827.72;;;14.98;41.34
50859;BME280;36826;47.514;19.056;2023-02-15T06:23:52;101833.81;;;13.85;41.54
50859;BME280;36826;47.514;19.056;2023-02-15T06:26:17;101835.69;;;11.80;44.46
50859;BME280;36826;47.514;19.056;2023-02-15T06:28:42;101837.72;;;11.22;46.33
50859;BME280;36826;47.514;19.056;2023-02-15T06:31:08;101838.09;;;11.30;46.48
50859;BME280;36826;47.514;19.056;2023-02-15T06:33:33;101833.88;;;14.07;43.34
50859;BME280;36826;47.514;19.056;2023-02-15T06:35:59;101829.34;;;17.92;37.02
50859;BME280;36826;47.514;19.056;2023-02-15T06:38:24;101829.28;;;19.89;32.94
50859;BME280;36826;47.514;19.056;2023-02-15T06:40:49;101829.78;;;21.66;30.67
50859;BME280;36826;47.514;19.056;2023-02-15T06:43:15;101840.00;;;22.95;29.45
50859;BME280;36826;47.514;19.056;2023-02-15T06:45:40;101835.59;;;24.33;27.27
50859;BME280;36826;47.514;19.056;2023-02-15T06:48:06;101836.94;;;25.34;26.77
50859;BME280;36826;47.514;19.056;2023-02-15T06:50:33;101841.16;;;25.00;26.17
50859;BME280;36826;47.514;19.056;2023-02-15T06:52:58;101840.19;;;26.10;24.96
50859;BME280;36826;47.514;19.056;2023-02-15T06:55:24;101834.41;;;26.97;24.19
50859;BME280;36826;47.514;19.056;2023-02-15T06:57:49;101843.94;;;27.69;23.22
50859;BME280;36826;47.514;19.056;2023-02-15T07:00:15;101840.97;;;27.78;22.90
50859;BME280;36826;47.514;19.056;2023-02-15T07:02:40;101832.50;;;27.52;23.16
50859;BME280;36826;47.514;19.056;2023-02-15T07:05:05;101838.44;;;27.76;23.16
50859;BME280;36826;47.514;19.056;2023-02-15T07:07:31;101834.69;;;28.90;22.01
50859;BME280;36826;47.514;19.056;2023-02-15T07:09:56;101838.66;;;29.07;22.03
50859;BME280;36826;47.514;19.056;2023-02-15T07:12:22;101847.34;;;27.78;22.34
50859;BME280;36826;47.514;19.056;2023-02-15T07:15:05;101842.63;;;28.59;21.99
50859;BME280;36826;47.514;19.056;2023-02-15T07:17:32;101850.47;;;29.15;21.63
50859;BME280;36826;47.514;19.056;2023-02-15T07:19:58;101853.94;;;30.50;20.58
50859;BME280;36826;47.514;19.056;2023-02-15T07:22:23;101853.66;;;31.57;20.13
50859;BME280;36826;47.514;19.056;2023-02-15T07:24:48;101853.97;;;31.67;19.87
50859;BME280;36826;47.514;19.056;2023-02-15T07:27:14;101860.44;;;29.61;20.98
50859;BME280;36826;47.514;19.056;2023-02-15T07:29:39;101850.66;;;25.99;23.72
50859;BME280;36826;47.514;19.056;2023-02-15T07:32:05;101850.31;;;28.10;22.51
50859;BME280;36826;47.514;19.056;2023-02-15T07:34:30;101852.63;;;29.06;21.39
50859;BME280;36826;47.514;19.056;2023-02-15T07:36:56;101853.47;;;28.41;22.53
50859;BME280;36826;47.514;19.056;2023-02-15T07:39:21;101845.69;;;30.69;20.45
50859;BME280;36826;47.514;19.056;2023-02-15T07:41:47;101847.22;;;30.65;20.21
50859;BME280;36826;47.514;19.056;2023-02-15T07:44:13;101842.56;;;32.70;19.32
50859;BME280;36826;47.514;19.056;2023-02-15T07:46:39;101840.22;;;29.35;20.78
50859;BME280;36826;47.514;19.056;2023-02-15T07:49:04;101841.19;;;26.59;23.26
50859;BME280;36826;47.514;19.056;2023-02-15T07:51:29;101833.50;;;25.10;24.64
50859;BME280;36826;47.514;19.056;2023-02-15T07:53:55;101836.31;;;27.65;23.12
50859;BME280;36826;47.514;19.056;2023-02-15T07:56:20;101842.03;;;24.02;25.89
50859;BME280;36826;47.514;19.056;2023-02-15T07:58:45;101835.41;;;24.80;25.25
50859;BME280;36826;47.514;19.056;2023-02-15T08:01:17;101824.75;;;27.14;23.14
50859;BME280;36826;47.514;19.056;2023-02-15T08:03:43;101828.72;;;27.94;23.67
50859;BME280;36826;47.514;19.056;2023-02-15T08:06:09;101818.41;;;29.59;21.52
50859;BME280;36826;47.514;19.056;2023-02-15T08:08:36;101816.81;;;29.45;21.74
50859;BME280;36826;47.514;19.056;2023-02-15T08:11:22;101817.75;;;28.86;21.83
50859;BME280;36826;47.514;19.056;2023-02-15T08:18:57;101808.38;;;31.09;20.34
50859;BME280;36826;47.514;19.056;2023-02-15T08:21:25;101804.38;;;31.23;20.27
50859;BME280;36826;47.514;19.056;2023-02-15T08:23:52;101802.34;;;30.81;20.46
50859;BME280;36826;47.514;19.056;2023-02-15T08:26:18;101802.56;;;31.83;19.65
50859;BME280;36826;47.514;19.056;2023-02-15T08:28:43;101802.22;;;31.37;19.71
50859;BME280;36826;47.514;19.056;2023-02-15T08:31:13;101812.84;;;31.52;20.41
50859;BME280;36826;47.514;19.056;2023-02-15T08:33:39;101799.81;;;31.29;19.90
50859;BME280;36826;47.514;19.056;2023-02-15T08:36:05;101796.69;;;33.38;19.49
50859;BME280;36826;47.514;19.056;2023-02-15T08:38:32;101794.63;;;30.09;20.89
50859;BME280;36826;47.514;19.056;2023-02-15T08:43:58;101806.88;;;27.59;22.45
50859;BME280;36826;47.514;19.056;2023-02-15T08:46:25;101793.19;;;29.17;22.13
50859;BME280;36826;47.514;19.056;2023-02-15T08:48:51;101797.09;;;29.66;21.36
50859;BME280;36826;47.514;19.056;2023-02-15T08:51:21;101796.41;;;30.96;21.43
50859;BME280;36826;47.514;19.056;2023-02-15T08:53:47;101796.91;;;31.05;20.21
50859;BME280;36826;47.514;19.056;2023-02-15T08:56:14;101803.41;;;28.51;22.38
50859;BME280;36826;47.514;19.056;2023-02-15T08:58:39;101801.00;;;30.09;22.04
50859;BME280;36826;47.514;19.056;2023-02-15T09:01:09;101795.34;;;29.72;21.30
50859;BME280;36826;47.514;19.056;2023-02-15T09:03:34;101792.69;;;29.27;21.81
50859;BME280;36826;47.514;19.056;2023-02-15T09:06:00;101791.59;;;28.37;22.95
50859;BME280;36826;47.514;19.056;2023-02-15T09:08:26;101796.91;;;27.71;22.99
50859;BME280;36826;47.514;19.056;2023-02-15T09:10:51;101790.28;;;27.32;23.36
50859;BME280;36826;47.514;19.056;2023-02-15T09:13:17;101787.19;;;28.02;23.06
50859;BME280;36826;47.514;19.056;2023-02-15T09:15:42;101779.59;;;26.40;24.49
50859;BME280;36826;47.514;19.056;2023-02-15T09:18:10;101782.03;;;25.99;24.60
50859;BME280;36826;47.514;19.056;2023-02-15T09:20:38;101787.81;;;25.39;25.25
50859;BME280;36826;47.514;19.056;2023-02-15T09:23:03;101796.38;;;23.56;27.19
50859;BME280;36826;47.514;19.056;2023-02-15T09:25:29;101789.34;;;25.92;25.48
50859;BME280;36826;47.514;19.056;2023-02-15T09:27:54;101784.47;;;24.86;26.24
50859;BME280;36826;47.514;19.056;2023-02-15T09:30:19;101786.75;;;25.40;25.37
50859;BME280;36826;47.514;19.056;2023-02-15T09:32:45;101785.88;;;25.33;25.75
50859;BME280;36826;47.514;19.056;2023-02-15T09:35:13;101792.53;;;24.72;26.20
50859;BME280;36826;47.514;19.056;2023-02-15T09:37:38;101780.66;;;26.10;25.51
50859;BME280;36826;47.514;19.056;2023-02-15T09:40:04;101787.13;;;27.35;24.13
50859;BME280;36826;47.514;19.056;2023-02-15T09:50:07;101783.28;;;24.43;26.50
50859;BME280;36826;47.514;19.056;2023-02-15T10:00:22;101765.34;;;25.07;26.45
50859;BME280;36826;47.514;19.056;2023-02-15T10:08:10;101750.06;;;26.55;24.32
50859;BME280;36826;47.514;19.056;2023-02-15T10:10:44;101745.97;;;26.86;24.55
50859;BME280;36826;47.514;19.056;2023-02-15T10:21:04;101748.16;;;24.02;27.04
50859;BME280;36826;47.514;19.056;2023-02-15T10:26:19;101746.41;;;24.91;26.67
50859;BME280;36826;47.514;19.056;2023-02-15T10:28:49;101750.66;;;23.50;27.43
50859;BME280;36826;47.514;19.056;2023-02-15T10:36:47;101759.53;;;20.33;30.91
50859;BME280;36826;47.514;19.056;2023-02-15T10:39:25;101751.88;;;18.93;32.45
50859;BME280;36826;47.514;19.056;2023-02-15T10:41:58;101748.75;;;19.97;31.75
50859;BME280;36826;47.514;19.056;2023-02-15T10:46:59;101739.88;;;19.68;32.79
50859;BME280;36826;47.514;19.056;2023-02-15T10:49:41;101728.81;;;21.00;31.63
50859;BME280;36826;47.514;19.056;2023-02-15T10:52:17;101730.38;;;21.44;30.86
50859;BME280;36826;47.514;19.056;2023-02-15T10:54:48;101748.28;;;19.21;32.67
50859;BME280;36826;47.514;19.056;2023-02-15T10:57:21;101730.34;;;19.46;33.03
50859;BME280;36826;47.514;19.056;2023-02-15T10:59:57;101724.66;;;19.57;33.34
50859;BME280;36826;47.514;19.056;2023-02-15T11:02:33;101723.06;;;20.17;32.08
50859;BME280;36826;47.514;19.056;2023-02-15T11:05:22;101719.00;;;19.51;32.76
50859;BME280;36826;47.514;19.056;2023-02-15T11:07:51;101715.00;;;19.00;33.48
50859;BME280;36826;47.514;19.056;2023-02-15T11:10:32;101718.59;;;18.91;33.84
50859;BME280;36826;47.514;19.056;2023-02-15T11:13:05;101711.19;;;19.29;33.39
50859;BME280;36826;47.514;19.056;2023-02-15T11:15:40;101704.25;;;19.53;33.02
50859;BME280;36826;47.514;19.056;2023-02-15T11:18:12;101698.22;;;19.23;33.12
50859;BME280;36826;47.514;19.056;2023-02-15T11:23:28;101696.09;;;19.53;33.10
50859;BME280;36826;47.514;19.056;2023-02-15T11:26:00;101702.72;;;17.26;35.58
50859;BME280;36826;47.514;19.056;2023-02-15T11:28:31;101698.22;;;16.66;37.17
50859;BME280;36826;47.514;19.056;2023-02-15T11:31:00;101686.34;;;18.04;35.62
50859;BME280;36826;47.514;19.056;2023-02-15T11:33:28;101687.28;;;18.23;35.10
50859;BME280;36826;47.514;19.056;2023-02-15T11:35:59;101672.59;;;18.44;34.97
50859;BME280;36826;47.514;19.056;2023-02-15T11:38:28;101673.72;;;19.15;34.61
50859;BME280;36826;47.514;19.056;2023-02-15T11:40:56;101671.56;;;19.00;34.00
50859;BME280;36826;47.514;19.056;2023-02-15T11:45:47;101660.31;;;20.19;33.20
50859;BME280;36826;47.514;19.056;2023-02-15T11:48:13;101654.28;;;20.42;32.25
50859;BME280;36826;47.514;19.056;2023-02-15T11:50:40;101654.47;;;20.48;32.32
50859;BME280;36826;47.514;19.056;2023-02-15T11:53:09;101653.66;;;20.05;32.69
50859;BME280;36826;47.514;19.056;2023-02-15T11:55:35;101652.25;;;20.01;32.40
50859;BME280;36826;47.514;19.056;2023-02-15T11:58:04;101643.97;;;19.84;33.15
50859;BME280;36826;47.514;19.056;2023-02-15T12:00:38;101648.19;;;19.78;32.68
50859;BME280;36826;47.514;19.056;2023-02-15T12:03:09;101651.16;;;18.68;34.54
50859;BME280;36826;47.514;19.056;2023-02-15T12:05:39;101652.81;;;18.61;34.76
50859;BME280;36826;47.514;19.056;2023-02-15T12:08:16;101656.53;;;18.60;34.98
50859;BME280;36826;47.514;19.056;2023-02-15T12:10:45;101657.44;;;18.23;34.78
50859;BME280;36826;47.514;19.056;2023-02-15T12:13:17;101650.56;;;18.75;34.73
50859;BME280;36826;47.514;19.056;2023-02-15T12:15:53;101639.19;;;19.78;33.69
50859;BME280;36826;47.514;19.056;2023-02-15T12:18:52;101639.09;;;19.17;33.84
50859;BME280;36826;47.514;19.056;2023-02-15T12:21:11;101633.47;;;19.37;33.51
50859;BME280;36826;47.514;19.056;2023-02-15T12:26:09;101622.34;;;18.21;35.42
50859;BME280;36826;47.514;19.056;2023-02-15T12:28:42;101617.75;;;18.86;34.23
50859;BME280;36826;47.514;19.056;2023-02-15T12:31:20;101623.19;;;18.86;34.06
50859;BME280;36826;47.514;19.056;2023-02-15T12:33:47;101621.75;;;17.52;36.11
50859;BME280;36826;47.514;19.056;2023-02-15T12:36:22;101625.31;;;17.90;36.03
50859;BME280;36826;47.514;19.056;2023-02-15T12:39:02;101617.03;;;18.02;35.74
50859;BME280;36826;47.514;19.056;2023-02-15T12:41:27;101613.31;;;17.93;35.73
50859;BME280;36826;47.514;19.056;2023-02-15T12:44:54;101607.38;;;18.81;34.91
50859;BME280;36826;47.514;19.056;2023-02-15T12:46:59;101600.91;;;17.53;36.80
50859;BME280;36826;47.514;19.056;2023-02-15T12:49:25;101605.00;;;16.99;37.41
50859;BME280;36826;47.514;19.056;2023-02-15T12:51:55;101599.44;;;17.68;36.28
50859;BME280;36826;47.514;19.056;2023-02-15T12:56:46;101590.97;;;17.33;37.02
50859;BME280;36826;47.514;19.056;2023-02-15T12:59:12;101589.88;;;17.16;37.22
50859;BME280;36826;47.514;19.056;2023-02-15T13:01:39;101584.53;;;17.44;36.82
50859;BME280;36826;47.514;19.056;2023-02-15T13:04:14;101580.75;;;17.27;37.07
50859;BME280;36826;47.514;19.056;2023-02-15T13:06:48;101581.72;;;18.12;36.22
50859;BME280;36826;47.514;19.056;2023-02-15T13:09:18;101566.22;;;18.50;35.76
50859;BME280;36826;47.514;19.056;2023-02-15T13:11:45;101564.78;;;18.82;34.77
50859;BME280;36826;47.514;19.056;2023-02-15T13:14:21;101559.44;;;18.90;34.57
50859;BME280;36826;47.514;19.056;2023-02-15T13:16:49;101563.81;;;19.27;34.11
50859;BME280;36826;47.514;19.056;2023-02-15T13:19:16;101561.59;;;18.14;35.20
50859;BME280;36826;47.514;19.056;2023-02-15T13:21:44;101561.66;;;18.22;35.47
50859;BME280;36826;47.514;19.056;2023-02-15T13:26:44;101559.72;;;17.87;35.42
50859;BME280;36826;47.514;19.056;2023-02-15T13:29:25;101554.03;;;18.08;35.56
50859;BME280;36826;47.514;19.056;2023-02-15T13:31:51;101555.56;;;17.55;36.14
50859;BME280;36826;47.514;19.056;2023-02-15T13:34:51;101550.75;;;17.48;36.26
50859;BME280;36826;47.514;19.056;2023-02-15T13:44:39;101553.38;;;16.91;37.46
50859;BME280;36826;47.514;19.056;2023-02-15T13:52:14;101526.44;;;18.77;34.65
50859;BME280;36826;47.514;19.056;2023-02-15T14:03:05;101534.47;;;18.68;34.89
50859;BME280;36826;47.514;19.056;2023-02-15T14:13:09;101531.47;;;19.42;33.66
50859;BME280;36826;47.514;19.056;2023-02-15T14:18:09;101529.38;;;18.47;34.17
50859;BME280;36826;47.514;19.056;2023-02-15T14:23:15;101534.47;;;19.66;33.11
50859;BME280;36826;47.514;19.056;2023-02-15T14:25:48;101536.25;;;18.23;35.09
50859;BME280;36826;47.514;19.056;2023-02-15T14:28:17;101535.69;;;19.10;34.17
50859;BME280;36826;47.514;19.056;2023-02-15T14:30:48;101539.91;;;18.50;34.61
50859;BME280;36826;47.514;19.056;2023-02-15T14:35:39;101544.81;;;18.47;34.73
50859;BME280;36826;47.514;19.056;2023-02-15T14:41:00;101547.06;;;18.05;35.40
50859;BME280;36826;47.514;19.056;2023-02-15T14:43:34;101545.03;;;17.79;35.63
50859;BME280;36826;47.514;19.056;2023-02-15T14:48:51;101537.72;;;17.90;35.59
50859;BME280;36826;47.514;19.056;2023-02-15T14:54:02;101528.00;;;18.43;35.23
50859;BME280;36826;47.514;19.056;2023-02-15T14:56:27;101528.66;;;18.27;35.08
50859;BME280;36826;47.514;19.056;2023-02-15T15:01:28;101532.06;;;18.65;35.15